Time;durP1;ratioP1;P1;durP2;ratioP2;P2;SDS_P1;SDS_P2;PMS_P1;PMS_P2;Temp;Humidity;BMP_temperature;BMP_pressure;BME280_temperature;BME280_humidity;BME280_pressure;Samples;Min_cycle;Max_cycle;Signal;HPM_P1;HPM_P2
2023/10/28 07:26:05;;;;;;;1.40;0.30;;;;;;;13.63;100.00;96924.23;101573;1298;601514;-58
2023/10/28 07:28:34;;;;;;;0.40;0.40;;;;;;;14.16;100.00;96936.70;103805;1272;60454;-60
2023/10/28 07:31:02;;;;;;;1.90;0.40;;;;;;;14.18;100.00;96938.37;103834;1265;59781;-58
2023/10/28 07:33:30;;;;;;;2.10;0.60;;;;;;;14.20;100.00;96956.02;103809;1271;72920;-58
2023/10/28 07:36:02;;;;;;;0.40;0.40;;;;;;;14.21;100.00;96949.98;103735;1270;69862;-58
2023/10/28 07:38:29;;;;;;;2.60;0.70;;;;;;;14.15;100.00;96964.77;103736;1283;72441;-58
2023/10/28 07:40:57;;;;;;;0.40;0.40;;;;;;;14.15;100.00;96979.59;103765;1272;61765;-58
2023/10/28 07:43:26;;;;;;;0.40;0.40;;;;;;;14.13;100.00;96991.05;104067;1267;59696;-57
2023/10/28 19:42:17;;;;;;;3.10;2.80;;;;;;;14.74;100.00;98556.74;101443;1295;601719;-57
2023/10/28 19:44:46;;;;;;;5.00;3.00;;;;;;;15.14;100.00;98555.27;105462;1265;61418;-56
2023/10/28 19:47:14;;;;;;;3.10;2.70;;;;;;;15.14;100.00;98557.00;106097;1266;60404;-56
2023/10/28 19:49:42;;;;;;;;;;;;;;;15.16;100.00;98555.45;103929;1266;71885;-57
2023/10/28 19:52:09;;;;;;;2.80;2.60;;;;;;;15.14;100.00;98559.73;103698;1266;70096;-56
2023/10/28 19:54:38;;;;;;;3.20;3.00;;;;;;;15.10;100.00;98559.62;103660;1267;72492;-56
2023/10/28 19:57:05;;;;;;;2.70;2.50;;;;;;;15.04;100.00;98560.27;103706;1264;247489;-59
2023/10/28 19:59:34;;;;;;;;;;;;;;;15.03;100.00;98560.40;104016;1269;61031;-57
2023/10/28 20:02:02;;;;;;;3.30;3.00;;;;;;;14.97;100.00;98562.78;103948;1266;72889;-60
2023/10/28 20:04:31;;;;;;;3.10;2.80;;;;;;;14.91;100.00;98570.11;103924;1266;69251;-56
2023/10/28 20:06:59;;;;;;;2.40;2.20;;;;;;;14.89;100.00;98578.41;103881;1267;72615;-56
2023/10/28 20:09:26;;;;;;;2.90;2.70;;;;;;;14.87;100.00;98582.29;104052;1264;62366;-56
2023/10/28 20:11:55;;;;;;;2.60;2.30;;;;;;;14.77;100.00;98572.45;103985;1264;59637;-57
2023/10/28 20:14:23;;;;;;;2.80;2.60;;;;;;;14.88;100.00;98593.09;103931;1262;73647;-56
2023/10/28 20:16:51;;;;;;;3.00;2.70;;;;;;;14.91;100.00;98597.08;103892;1276;69255;-56
2023/10/28 20:19:19;;;;;;;2.70;2.50;;;;;;;14.93;100.00;98595.89;103985;1279;73095;-57
2023/10/28 20:21:47;;;;;;;;;;;;;;;14.90;100.00;98593.48;103980;1264;61511;-56
2023/10/28 20:24:15;;;;;;;2.80;2.60;;;;;;;14.91;100.00;98591.99;103925;1262;59736;-56
2023/10/28 20:26:43;;;;;;;2.70;2.50;;;;;;;14.93;100.00;98595.77;103952;1267;72975;-56
2023/10/28 20:29:11;;;;;;;2.90;2.60;;;;;;;14.92;100.00;98599.46;104019;1263;70048;-56
2023/10/28 20:31:40;;;;;;;3.00;2.60;;;;;;;14.95;100.00;98603.71;104161;1264;72852;-57
2023/10/28 20:34:07;;;;;;;2.90;2.70;;;;;;;14.91;100.00;98611.21;103834;1266;61745;-56
2023/10/28 20:36:36;;;;;;;;;;;;;;;14.84;100.00;98619.16;104015;1266;59698;-56
2023/10/28 20:39:05;;;;;;;2.80;2.50;;;;;;;14.75;100.00;98617.73;103909;1269;73270;-57
2023/10/28 20:41:33;;;;;;;3.10;2.80;;;;;;;14.67;100.00;98620.12;103962;1263;68347;-57
2023/10/28 20:44:01;;;;;;;3.00;2.80;;;;;;;14.65;100.00;98616.18;104167;1280;71986;-57
2023/10/28 20:46:28;;;;;;;5.20;2.70;;;;;;;14.65;100.00;98612.36;107017;1263;61811;-57
2023/10/28 20:48:56;;;;;;;2.80;2.50;;;;;;;14.62;100.00;98620.48;105204;1269;60065;-56
2023/10/28 20:51:24;;;;;;;;;;;;;;;14.57;100.00;98631.94;104531;1266;72945;-56
2023/10/28 20:53:52;;;;;;;3.00;2.70;;;;;;;14.54;100.00;98634.98;104814;1257;70001;-57
2023/10/28 20:56:20;;;;;;;3.00;2.30;;;;;;;14.54;100.00;98634.45;104693;1257;72917;-60
2023/10/28 20:58:48;;;;;;;2.70;2.50;;;;;;;14.55;100.00;98638.46;104545;1257;62143;-60
2023/10/28 21:01:15;;;;;;;2.70;2.50;;;;;;;14.53;100.00;98638.22;104410;1254;59678;-58
2023/10/28 21:03:43;;;;;;;2.30;2.10;;;;;;;14.51;100.00;98645.79;104598;1260;73992;-59
2023/10/28 21:06:11;;;;;;;2.20;2.10;;;;;;;14.52;100.00;98645.54;104419;1258;69102;-58
2023/10/28 21:08:39;;;;;;;2.10;1.90;;;;;;;14.57;100.00;98646.80;104316;1251;71383;-58
2023/10/28 21:11:11;;;;;;;2.30;2.20;;;;;;;14.53;100.00;98647.28;104506;1255;61786;-59
2023/10/28 21:13:38;;;;;;;2.70;2.50;;;;;;;14.54;100.00;98646.64;104433;1251;59781;-58
2023/10/28 21:16:06;;;;;;;2.30;2.20;;;;;;;14.52;100.00;98646.22;104479;1257;72724;-59
2023/10/28 21:18:34;;;;;;;;;;;;;;;14.52;100.00;98648.74;104518;1255;68997;-57
2023/10/28 21:21:03;;;;;;;2.30;2.10;;;;;;;14.50;100.00;98655.56;104431;1254;72923;-58
2023/10/28 21:23:31;;;;;;;2.90;2.70;;;;;;;14.52;100.00;98660.20;104739;1265;61536;-58
2023/10/28 21:25:58;;;;;;;2.50;2.30;;;;;;;14.54;100.00;98660.75;104488;1251;60345;-57
2023/10/28 21:28:26;;;;;;;2.50;2.30;;;;;;;14.57;100.00;98665.98;104445;1256;72778;-58
2023/10/28 21:30:54;;;;;;;3.10;2.30;;;;;;;14.60;100.00;98671.96;104406;1257;69435;-59
2023/10/28 21:33:22;;;;;;;6.20;2.30;;;;;;;14.63;100.00;98675.14;104289;1260;72932;-58
2023/10/28 21:35:53;;;;;;;2.30;2.10;;;;;;;14.59;100.00;98677.14;104473;1253;61866;-58
2023/10/28 21:38:21;;;;;;;3.30;3.00;;;;;;;14.51;100.00;98675.39;104317;1256;59614;-59
2023/10/28 21:40:49;;;;;;;;;;;;;;;14.48;100.00;98674.40;104365;1251;71729;-58
2023/10/28 21:43:18;;;;;;;2.90;2.70;;;;;;;14.45;100.00;98680.29;104407;1253;69662;-58
2023/10/28 21:45:58;;;;;;;3.10;2.90;;;;;;;14.43;100.00;98677.45;107071;1251;71108;-59
2023/10/28 21:48:26;;;;;;;3.50;3.20;;;;;;;14.46;100.00;98681.30;107893;1253;61715;-59
2023/10/28 21:50:55;;;;;;;3.70;3.40;;;;;;;14.46;100.00;98683.25;104876;1253;59784;-58
2023/10/28 21:53:23;;;;;;;4.00;3.50;;;;;;;14.45;100.00;98685.60;104486;1257;73692;-58
2023/10/28 21:55:51;;;;;;;;;;;;;;;14.46;100.00;98690.11;104572;1254;69137;-58
2023/10/28 21:58:18;;;;;;;;;;;;;;;14.46;100.00;98700.86;104473;1265;72286;-59
2023/10/28 22:00:47;;;;;;;3.20;2.90;;;;;;;14.43;100.00;98700.67;104419;1254;63242;-58
2023/10/28 22:03:16;;;;;;;3.20;3.00;;;;;;;14.44;100.00;98702.26;104544;1250;59820;-57
2023/10/28 22:05:48;;;;;;;3.40;3.10;;;;;;;14.42;100.00;98696.39;104357;1266;72701;-57
2023/10/28 22:08:18;;;;;;;5.40;3.40;;;;;;;14.42;100.00;98702.73;104295;1256;70083;-58
2023/10/28 22:10:46;;;;;;;3.80;3.50;;;;;;;14.40;100.00;98704.59;104523;1254;71855;-58
2023/10/28 22:13:14;;;;;;;3.60;3.30;;;;;;;14.37;100.00;98717.67;104272;1266;61491;-58
2023/10/28 22:15:42;;;;;;;3.80;3.50;;;;;;;14.34;100.00;98725.98;104684;1253;60650;-58
2023/10/28 22:18:13;;;;;;;3.60;3.30;;;;;;;14.30;100.00;98729.80;104476;1254;72909;-58
2023/10/28 22:20:42;;;;;;;3.70;3.40;;;;;;;14.27;100.00;98733.26;104515;1257;69584;-59
2023/10/28 22:23:11;;;;;;;3.50;3.20;;;;;;;14.21;100.00;98732.27;104342;1269;72677;-58
2023/10/28 22:25:39;;;;;;;3.80;3.50;;;;;;;14.19;100.00;98732.77;104364;1253;61888;-58
2023/10/28 22:28:07;;;;;;;4.80;3.50;;;;;;;14.17;100.00;98736.43;104340;1252;59732;-57
2023/10/28 22:30:45;;;;;;;4.10;3.50;;;;;;;14.16;100.00;98739.98;104455;1259;72780;-59
2023/10/28 22:33:13;;;;;;;3.90;3.60;;;;;;;14.09;100.00;98747.36;104328;1257;68314;-59
2023/10/28 22:35:42;;;;;;;3.90;3.60;;;;;;;14.03;100.00;98749.97;104380;1257;71875;-58
2023/10/28 22:38:10;;;;;;;3.50;3.20;;;;;;;14.03;100.00;98744.63;104443;1254;61777;-59
2023/10/28 22:40:42;;;;;;;5.10;3.10;;;;;;;14.07;100.00;98748.58;104340;1254;59689;-58
2023/10/28 22:43:10;;;;;;;4.00;3.60;;;;;;;14.09;100.00;98753.25;104464;1257;72711;-59
2023/10/28 22:45:38;;;;;;;3.80;3.50;;;;;;;14.10;100.00;98749.09;104305;1266;69469;-58
2023/10/28 22:48:05;;;;;;;;;;;;;;;14.08;100.00;98750.80;104381;1272;73178;-62
2023/10/28 22:50:33;;;;;;;3.90;3.00;;;;;;;14.06;100.00;98750.61;104396;1253;61697;-58
2023/10/28 22:53:01;;;;;;;3.10;2.80;;;;;;;14.06;100.00;98746.91;104553;1257;60013;-59
2023/10/28 22:55:29;;;;;;;3.00;2.80;;;;;;;14.02;100.00;98745.98;104308;1257;72873;-59
2023/10/28 22:57:57;;;;;;;;;;;;;;;14.00;100.00;98746.41;104400;1257;70137;-59
2023/10/28 23:00:27;;;;;;;2.70;2.50;;;;;;;13.96;100.00;98751.48;104447;1260;73382;-60
2023/10/28 23:02:55;;;;;;;3.20;2.70;;;;;;;13.92;100.00;98758.26;104419;1253;61482;-59
2023/10/28 23:05:23;;;;;;;3.20;2.90;;;;;;;13.90;100.00;98757.75;104302;1251;59717;-59
2023/10/28 23:07:51;;;;;;;4.90;3.00;;;;;;;13.90;100.00;98760.02;104300;1254;73308;-59
2023/10/28 23:10:18;;;;;;;3.30;3.10;;;;;;;13.88;100.00;98764.01;104349;1261;69115;-62
2023/10/28 23:12:46;;;;;;;3.20;3.00;;;;;;;13.84;100.00;98771.89;104335;1257;72509;-61
2023/10/28 23:15:15;;;;;;;3.40;3.20;;;;;;;13.80;100.00;98775.11;104277;1257;60474;-59
2023/10/28 23:17:43;;;;;;;4.00;3.60;;;;;;;13.80;100.00;98776.38;104374;1254;59660;-59
2023/10/28 23:20:12;;;;;;;4.00;3.60;;;;;;;13.78;100.00;98778.27;104410;1252;72902;-60
2023/10/28 23:22:41;;;;;;;3.30;3.10;;;;;;;13.72;100.00;98782.79;104437;1253;70063;-60
2023/10/28 23:25:09;;;;;;;3.80;3.50;;;;;;;13.70;100.00;98785.86;104300;1254;72905;-60
2023/10/28 23:27:41;;;;;;;4.10;3.80;;;;;;;13.71;100.00;98785.65;104302;1254;61429;-59
2023/10/28 23:30:09;;;;;;;4.50;3.50;;;;;;;13.71;100.00;98780.86;104425;1251;59726;-59
2023/10/28 23:32:37;;;;;;;4.10;3.80;;;;;;;13.70;100.00;98784.31;104367;1252;72060;-60
2023/10/28 23:35:06;;;;;;;4.40;4.10;;;;;;;13.67;100.00;98785.05;104433;1254;69892;-58
2023/10/28 23:37:33;;;;;;;4.00;3.50;;;;;;;13.66;100.00;98783.89;104283;1254;72385;-59
2023/10/28 23:40:05;;;;;;;4.00;3.60;;;;;;;13.67;100.00;98785.73;104461;1265;61428;-59
2023/10/28 23:42:33;;;;;;;4.20;3.90;;;;;;;13.67;100.00;98788.61;104269;1268;59787;-59
2023/10/28 23:45:01;;;;;;;5.80;3.70;;;;;;;13.68;100.00;98791.70;104423;1259;72820;-61
2023/10/28 23:47:29;;;;;;;;;;;;;;;13.66;100.00;98790.77;104673;1250;69785;-59
2023/10/28 23:49:56;;;;;;;;;;;;;;;13.71;100.00;98789.35;107652;1253;71348;-60
2023/10/28 23:52:24;;;;;;;;;;;;;;;13.71;100.00;98793.20;104593;1254;60681;-59
2023/10/28 23:54:51;;;;;;;3.10;2.80;;;;;;;13.74;100.00;98797.80;104934;1252;60533;-59
2023/10/28 23:57:19;;;;;;;3.60;3.40;;;;;;;13.76;100.00;98794.64;106992;1253;72722;-61
2023/10/28 23:59:47;;;;;;;3.20;3.00;;;;;;;13.82;100.00;98799.67;104352;1253;69468;-59
